MPMG

Marcos A. Gelabert International Airport

Albrook, Panama
METAR MPMG 212000Z VRB03KT 9999 SCT018CB BKN090 28/24 Q1007 RETS NOSIG
Observed Flight Rules
Oct-21 @ 20:00 UTC (an hour ago) Visual Flight Rules
Wind Visibility Clouds
Variable at 3 knots 10,000+ meters
  • Scattered at 1,800' AGL
  • Broken at 9,000' AGL
Temperatures Readings
Current 28°C / 82°F
Dewpoint 24°C / 75°F
Humidity 79%
Altimeter 29.73" Hg
Pressure 1007 hPa
Elevation 13
METAR MPMG 212000Z VRB03KT 9999 SCT018CB BKN090 28/24 Q1007 RETS NOSIG
Observed Flight Rules
Oct-21 @ 20:00 UTC
(an hour ago)
VFR
Wind Visibility
Variable at 3 knots 10,000+ meters
Clouds
  • Scattered at 1,800' AGL
  • Broken at 9,000' AGL
Temperature Dewpoint
28°C / 82°F 24°C / 75°F
Humidity Altimeter Pressure
79% 29.73" Hg 1007 hPa